createdAt,value
2022-11-20T00:02:55.326Z,17.77
2022-11-20T00:08:33.860Z,18.47
2022-11-20T00:20:14.578Z,15.87
2022-11-20T00:25:41.750Z,18.73
2022-11-20T00:31:20.515Z,16.60
2022-11-20T00:36:47.093Z,18.97
2022-11-20T00:54:36.539Z,19.20
2022-11-20T01:00:01.649Z,19.00
2022-11-20T01:05:34.969Z,20.57
2022-11-20T01:11:13.501Z,19.83
2022-11-20T01:16:47.477Z,18.47
2022-11-20T01:22:23.732Z,22.87
2022-11-20T01:28:13.624Z,18.77
2022-11-20T01:33:40.820Z,19.50
2022-11-20T01:39:46.622Z,19.67
2022-11-20T01:45:46.433Z,18.77
2022-11-20T01:51:38.812Z,19.10
2022-11-20T01:57:12.580Z,17.40
2022-11-20T02:02:36.915Z,19.27
2022-11-20T02:08:09.519Z,16.83
2022-11-20T02:13:48.137Z,22.50
2022-11-20T02:19:25.875Z,18.53
2022-11-20T02:25:09.607Z,18.20
2022-11-20T02:30:35.259Z,17.17
2022-11-20T02:36:03.549Z,19.37
2022-11-20T02:41:37.373Z,19.90
2022-11-20T02:47:18.475Z,16.30
2022-11-20T02:52:45.138Z,19.97
2022-11-20T02:58:13.310Z,18.67
2022-11-20T03:03:48.588Z,19.50
2022-11-20T03:09:24.883Z,21.70
2022-11-20T03:15:04.505Z,20.37
2022-11-20T03:20:29.676Z,24.20
2022-11-20T03:25:55.069Z,22.73
2022-11-20T03:31:27.306Z,19.90
2022-11-20T03:36:54.798Z,20.67
2022-11-20T03:42:34.001Z,22.83
2022-11-20T03:48:01.796Z,20.93
2022-11-20T03:53:32.335Z,25.17
2022-11-20T03:58:57.353Z,24.43
2022-11-20T04:04:24.767Z,23.07
2022-11-20T04:09:57.562Z,27.63
2022-11-20T04:15:22.685Z,27.87
2022-11-20T04:21:05.961Z,23.47
2022-11-20T04:26:39.653Z,25.40
2022-11-20T04:32:07.082Z,24.67
2022-11-20T04:37:36.701Z,26.80
2022-11-20T04:43:12.238Z,23.87
2022-11-20T04:48:41.559Z,24.10
2022-11-20T04:54:16.370Z,26.40
2022-11-20T04:59:51.497Z,26.67
2022-11-20T05:05:19.150Z,26.60
2022-11-20T05:11:21.196Z,22.93
2022-11-20T05:16:48.374Z,24.07
2022-11-20T05:22:14.418Z,23.07
2022-11-20T05:27:53.063Z,23.77
2022-11-20T05:33:30.051Z,29.67
2022-11-20T05:38:59.731Z,23.33
2022-11-20T05:44:33.439Z,23.67
2022-11-20T05:49:56.936Z,27.53
2022-11-20T05:55:22.224Z,26.77
2022-11-20T06:00:51.114Z,26.30
2022-11-20T06:06:15.434Z,26.60
2022-11-20T06:11:39.863Z,26.70
2022-11-20T06:17:07.373Z,24.30
2022-11-20T06:22:40.165Z,24.83
2022-11-20T06:28:05.593Z,24.33
2022-11-20T06:33:33.787Z,27.00
2022-11-20T06:39:03.736Z,28.00
2022-11-20T06:44:41.644Z,27.63
2022-11-20T06:50:29.576Z,31.20
2022-11-20T06:55:59.217Z,28.30
2022-11-20T07:01:25.678Z,25.83
2022-11-20T07:07:12.118Z,28.63
2022-11-20T07:12:45.078Z,23.67
2022-11-20T07:18:16.548Z,24.87
2022-11-20T07:23:52.527Z,26.13
2022-11-20T07:29:36.666Z,25.97
2022-11-20T07:35:18.147Z,28.97
2022-11-20T07:40:57.361Z,24.23
2022-11-20T07:52:06.520Z,24.47
2022-11-20T07:57:46.849Z,24.37
2022-11-20T08:03:32.291Z,25.00
2022-11-20T08:09:18.202Z,24.93
2022-11-20T08:15:11.341Z,21.60
2022-11-20T08:20:40.675Z,24.63
2022-11-20T08:26:07.659Z,21.13
2022-11-20T08:50:45.266Z,22.17
2022-11-20T08:56:31.161Z,22.10
2022-11-20T09:01:56.749Z,18.43
2022-11-20T09:07:31.226Z,20.87
2022-11-20T09:12:57.616Z,20.87
2022-11-20T09:18:22.871Z,17.43
2022-11-20T09:23:57.189Z,17.60
2022-11-20T09:41:29.319Z,19.50
2022-11-20T09:47:02.373Z,16.30
2022-11-20T09:52:36.929Z,17.17
2022-11-20T09:58:05.844Z,17.87
2022-11-20T10:16:17.913Z,20.97
2022-11-20T10:22:01.275Z,22.13
2022-11-20T10:28:17.666Z,23.20
2022-11-20T10:34:12.035Z,20.03
2022-11-20T10:40:01.706Z,17.70
2022-11-20T10:46:06.859Z,21.10
2022-11-20T10:52:08.700Z,19.27
2022-11-20T10:58:05.414Z,19.03
2022-11-20T11:10:00.354Z,16.43
2022-11-20T11:15:36.057Z,13.67
2022-11-20T11:21:04.050Z,13.37
2022-11-20T11:26:33.065Z,12.60
2022-11-20T11:32:11.571Z,13.13
2022-11-20T11:37:44.225Z,10.70
2022-11-20T11:43:47.641Z,9.97
2022-11-20T11:49:25.440Z,9.50
2022-11-20T11:54:55.280Z,9.70
2022-11-20T12:00:25.076Z,10.53
2022-11-20T12:06:02.178Z,11.53
2022-11-20T12:11:47.369Z,9.63
2022-11-20T12:17:27.993Z,10.93
2022-11-20T12:23:03.281Z,11.57
2022-11-20T12:28:46.835Z,11.63
2022-11-20T12:34:34.078Z,10.73
2022-11-20T12:40:20.858Z,10.23
2022-11-20T12:46:25.487Z,10.57
2022-11-20T12:52:21.075Z,9.07
2022-11-20T12:57:59.943Z,10.73
2022-11-20T13:03:50.968Z,10.80
2022-11-20T13:09:25.239Z,11.30
2022-11-20T13:15:40.028Z,11.57
2022-11-20T13:21:04.107Z,10.57
2022-11-20T13:26:35.361Z,9.07
2022-11-20T13:32:18.185Z,10.13
2022-11-20T13:37:50.984Z,9.37
2022-11-20T13:43:35.082Z,11.33
2022-11-20T13:49:17.513Z,10.90
2022-11-20T13:55:09.555Z,12.83
2022-11-20T14:01:04.854Z,9.53
2022-11-20T14:06:36.482Z,8.67
2022-11-20T14:12:07.114Z,8.43
2022-11-20T14:17:42.534Z,8.50
2022-11-20T14:23:29.772Z,9.57
2022-11-20T14:29:10.841Z,8.83
2022-11-20T14:35:08.659Z,8.83
2022-11-20T14:40:45.637Z,10.57
2022-11-20T14:46:20.223Z,9.70
2022-11-20T14:51:54.330Z,9.57
2022-11-20T14:57:38.685Z,9.70
2022-11-20T15:03:34.066Z,10.70
2022-11-20T15:09:14.009Z,10.50
2022-11-20T15:20:54.088Z,12.77
2022-11-20T15:26:29.531Z,12.83
2022-11-20T15:32:16.126Z,13.77
2022-11-20T15:38:07.639Z,12.57
2022-11-20T15:43:31.687Z,12.13
2022-11-20T15:55:09.779Z,13.80
2022-11-20T16:00:50.316Z,13.17
2022-11-20T16:06:32.314Z,13.70
2022-11-20T16:12:10.885Z,14.93
2022-11-20T16:17:46.399Z,13.67
2022-11-20T16:23:26.028Z,12.37
2022-11-20T16:28:48.730Z,13.73
2022-11-20T16:34:17.041Z,14.20
2022-11-20T16:39:51.881Z,14.60
2022-11-20T16:45:33.758Z,14.20
2022-11-20T16:51:01.111Z,14.00
2022-11-20T16:56:36.233Z,16.33
2022-11-20T17:02:21.439Z,14.97
2022-11-20T17:14:03.540Z,15.63
2022-11-20T17:19:38.568Z,17.67
2022-11-20T17:25:10.200Z,21.17
2022-11-20T17:31:22.464Z,19.33
2022-11-20T17:36:52.713Z,23.67
2022-11-20T17:42:47.918Z,25.63
2022-11-20T17:48:21.070Z,21.37
2022-11-20T17:54:03.364Z,25.13
2022-11-20T17:59:43.437Z,22.60
2022-11-20T18:05:12.588Z,23.23
2022-11-20T18:10:50.920Z,22.10
2022-11-20T18:16:20.751Z,23.30
2022-11-20T18:21:49.019Z,23.70
2022-11-20T18:27:33.392Z,20.83
2022-11-20T18:33:00.297Z,22.17
2022-11-20T18:38:28.654Z,22.60
2022-11-20T18:44:16.152Z,24.83
2022-11-20T18:49:41.444Z,25.13
2022-11-20T19:00:46.938Z,26.20
2022-11-20T19:06:24.404Z,23.93
2022-11-20T19:11:50.256Z,21.67
2022-11-20T19:17:18.515Z,27.13
2022-11-20T19:22:48.419Z,22.83
2022-11-20T19:28:41.910Z,23.10
2022-11-20T19:34:46.373Z,22.50
2022-11-20T19:40:19.361Z,25.50
2022-11-20T19:51:46.164Z,23.93
2022-11-20T19:57:12.425Z,21.37
2022-11-20T20:02:39.391Z,20.23
2022-11-20T20:08:05.999Z,21.77
2022-11-20T20:13:29.726Z,20.33
2022-11-20T20:18:59.884Z,23.30
2022-11-20T20:24:41.947Z,28.10
2022-11-20T20:30:23.511Z,21.13
2022-11-20T20:35:46.224Z,20.20
2022-11-20T20:41:25.135Z,20.13
2022-11-20T20:47:06.421Z,22.40
2022-11-20T20:52:38.259Z,22.87
2022-11-20T20:58:10.328Z,20.70
2022-11-20T21:03:35.691Z,21.57
2022-11-20T21:09:08.026Z,21.07
2022-11-20T21:14:54.322Z,22.07
2022-11-20T21:20:33.452Z,21.47
2022-11-20T21:26:12.199Z,24.97
2022-11-20T21:31:47.589Z,22.83
2022-11-20T21:37:14.350Z,24.50
2022-11-20T21:42:43.360Z,23.10
2022-11-20T21:48:19.418Z,21.90
2022-11-20T21:53:46.126Z,22.50
2022-11-20T21:59:27.253Z,26.13
2022-11-20T22:10:38.414Z,22.07
2022-11-20T22:16:12.143Z,21.60
2022-11-20T22:21:38.181Z,22.63
2022-11-20T22:27:07.500Z,22.90
2022-11-20T22:32:37.090Z,25.20
2022-11-20T22:38:20.492Z,21.97
2022-11-20T22:44:08.449Z,23.17
2022-11-20T22:49:36.819Z,21.17
2022-11-20T22:55:16.313Z,21.97
2022-11-20T23:01:01.600Z,20.67
2022-11-20T23:06:29.739Z,21.57
2022-11-20T23:17:58.336Z,21.83
2022-11-20T23:23:22.911Z,21.77
2022-11-20T23:29:12.975Z,24.73
2022-11-20T23:34:46.064Z,20.97
2022-11-20T23:40:16.511Z,23.87
2022-11-20T23:45:48.881Z,22.87
2022-11-20T23:56:54.445Z,23.27
